createdAt,value
2022-11-14T07:15:57.838Z,102330.13
2022-11-14T07:18:52.989Z,102325.84
2022-11-14T07:21:48.931Z,102323.25
2022-11-14T07:24:44.405Z,102319.66
2022-11-14T07:27:40.671Z,102323.09
2022-11-14T07:30:36.893Z,102320.44
2022-11-14T07:33:35.498Z,102308.88
2022-11-14T07:36:30.678Z,102310.72
2022-11-14T07:39:26.038Z,102305.41
2022-11-14T07:42:21.069Z,102302.94
2022-11-14T07:45:16.319Z,102301.13
2022-11-14T07:48:11.342Z,102302.75
2022-11-14T07:51:17.568Z,102303.56
2022-11-14T07:54:15.081Z,102301.75
2022-11-14T07:57:10.528Z,102306.28
2022-11-14T08:00:06.409Z,102298.31
2022-11-14T08:03:02.233Z,102294.97
2022-11-14T08:06:08.943Z,102294.78
2022-11-14T08:09:04.669Z,102293.09
2022-11-14T08:11:59.902Z,102281.59
2022-11-14T08:14:55.431Z,102283.56
2022-11-14T08:17:50.969Z,102288.94
2022-11-14T08:20:46.711Z,102281.22
2022-11-14T08:23:45.727Z,102281.22
2022-11-14T08:26:41.506Z,102277.69
2022-11-14T08:29:36.874Z,102275.13
2022-11-14T08:32:32.533Z,102268.94
2022-11-14T08:35:27.824Z,102262.72
2022-11-14T08:38:23.314Z,102265.28
2022-11-14T08:41:21.195Z,102255.53
2022-11-14T08:44:17.247Z,102245.75
2022-11-14T08:47:13.905Z,102245.75
2022-11-14T08:50:11.585Z,102242.16
2022-11-14T08:53:07.702Z,102238.56
2022-11-14T08:56:04.089Z,102233.25
2022-11-14T08:59:03.143Z,102234.91
2022-11-14T09:01:59.219Z,102237.63
2022-11-14T09:04:55.191Z,102227.78
2022-11-14T09:07:51.423Z,102226.06
2022-11-14T09:10:47.585Z,102226.06
2022-11-14T09:13:44.035Z,102223.41
2022-11-14T09:16:41.974Z,102216.97
2022-11-14T09:19:37.869Z,102211.00
2022-11-14T09:22:34.416Z,102209.00
2022-11-14T09:25:30.253Z,102215.97
2022-11-14T09:28:25.559Z,102214.25
2022-11-14T09:31:21.347Z,102204.66
2022-11-14T09:34:19.356Z,102201.91
2022-11-14T09:37:15.237Z,102197.53
2022-11-14T09:40:15.904Z,102206.53
2022-11-14T09:43:39.395Z,102198.63
2022-11-14T09:46:40.774Z,102195.22
2022-11-14T09:49:42.814Z,102189.97
2022-11-14T09:52:45.434Z,102192.63
2022-11-14T09:55:41.428Z,102189.13
2022-11-14T09:58:37.305Z,102188.25
2022-11-14T10:01:49.369Z,102183.72
2022-11-14T10:05:08.356Z,102182.03
2022-11-14T10:08:23.644Z,102176.72
2022-11-14T10:11:26.815Z,102167.94
2022-11-14T10:21:11.255Z,102155.63
2022-11-14T10:27:42.005Z,102145.00
2022-11-14T10:34:10.024Z,102137.94
2022-11-14T10:40:42.269Z,102133.66
2022-11-14T10:47:10.416Z,102136.72
2022-11-14T10:53:47.129Z,102133.13
2022-11-14T11:00:19.647Z,102117.97
2022-11-14T11:06:42.370Z,102118.47
2022-11-14T11:13:05.426Z,102107.06
2022-11-14T11:16:06.088Z,102114.94
2022-11-14T11:19:25.302Z,102115.81
2022-11-14T11:22:40.551Z,102103.47
2022-11-14T11:25:37.478Z,102105.53
2022-11-14T11:28:33.410Z,102106.56
2022-11-14T11:31:32.143Z,102102.41
2022-11-14T11:34:31.229Z,102101.56
2022-11-14T11:37:30.470Z,102096.25
2022-11-14T11:40:29.771Z,102091.03
2022-11-14T11:43:39.833Z,102084.94
2022-11-14T11:46:48.112Z,102084.94
2022-11-14T11:49:53.928Z,102090.41
2022-11-14T11:53:00.729Z,102087.13
2022-11-14T11:56:02.906Z,102076.78
2022-11-14T11:59:21.076Z,102074.13
2022-11-14T12:02:26.765Z,102068.06
2022-11-14T12:05:34.766Z,102064.47
2022-11-14T12:08:38.618Z,102058.47
2022-11-14T12:11:37.381Z,102055.75
2022-11-14T12:14:56.645Z,102061.34
2022-11-14T12:18:24.003Z,102057.78
2022-11-14T12:21:35.122Z,102057.06
2022-11-14T12:25:11.882Z,102049.19
2022-11-14T12:28:23.932Z,102040.78
2022-11-14T12:31:21.309Z,102042.50
2022-11-14T12:34:28.888Z,102047.97
2022-11-14T12:37:33.050Z,102046.22
2022-11-14T12:40:35.212Z,102033.28
2022-11-14T12:43:40.581Z,102030.50
2022-11-14T12:47:24.171Z,102028.75
2022-11-14T12:50:44.354Z,102016.75
2022-11-14T12:53:47.260Z,102019.50
2022-11-14T12:57:04.265Z,102015.03
2022-11-14T13:00:08.130Z,102023.09
2022-11-14T13:03:34.430Z,102020.34
2022-11-14T13:06:47.808Z,102016.28
2022-11-14T13:10:04.472Z,102006.78
2022-11-14T13:13:21.241Z,102012.09
2022-11-14T13:16:54.013Z,102008.56
2022-11-14T13:20:02.811Z,102005.25
2022-11-14T13:23:01.108Z,102001.09
2022-11-14T13:26:40.850Z,101991.25
2022-11-14T13:30:02.322Z,101993.78
2022-11-14T13:32:58.831Z,101993.06
2022-11-14T13:36:05.047Z,101994.78
2022-11-14T13:39:26.804Z,101992.38
2022-11-14T13:42:41.468Z,101984.41
2022-11-14T13:46:00.660Z,101973.09
2022-11-14T13:49:21.141Z,101979.50
2022-11-14T13:52:16.889Z,101972.66
2022-11-14T13:55:24.970Z,101973.50
2022-11-14T13:58:49.830Z,101964.84
2022-11-14T14:02:10.151Z,101971.41
2022-11-14T14:05:21.282Z,101966.16
2022-11-14T14:08:33.193Z,101965.47
2022-11-14T14:11:50.536Z,101968.28
2022-11-14T14:15:15.383Z,101951.84
2022-11-14T14:18:23.543Z,101951.88
2022-11-14T14:21:33.652Z,101948.41
2022-11-14T14:24:53.945Z,101942.53
2022-11-14T14:28:06.373Z,101943.72
2022-11-14T14:31:20.266Z,101950.91
2022-11-14T14:34:26.238Z,101939.59
2022-11-14T14:37:25.361Z,101940.59
2022-11-14T14:40:29.887Z,101934.59
2022-11-14T14:43:35.204Z,101933.00
2022-11-14T14:46:36.366Z,101933.00
2022-11-14T14:49:38.236Z,101919.88
2022-11-14T14:52:39.390Z,101921.78
2022-11-14T14:55:37.692Z,101917.28
2022-11-14T14:58:39.022Z,101914.03
2022-11-14T15:01:38.712Z,101919.13
2022-11-14T15:04:35.100Z,101927.25
2022-11-14T15:07:33.329Z,101924.13
2022-11-14T15:10:33.188Z,101921.16
2022-11-14T15:13:31.058Z,101918.47
2022-11-14T15:16:29.862Z,101928.19
2022-11-14T15:19:28.142Z,101921.00
2022-11-14T15:22:30.448Z,101926.31
2022-11-14T15:25:25.903Z,101929.72
2022-11-14T15:28:24.561Z,101922.41
2022-11-14T15:31:25.762Z,101926.03
2022-11-14T15:34:33.303Z,101931.16
2022-11-14T15:37:28.894Z,101931.31
2022-11-14T15:40:25.638Z,101930.59
2022-11-14T15:43:53.496Z,101927.88
2022-11-14T15:46:52.297Z,101921.00
2022-11-14T15:50:03.723Z,101909.50
2022-11-14T15:53:04.958Z,101908.72
2022-11-14T15:56:01.457Z,101903.56
2022-11-14T15:58:57.699Z,101904.50
2022-11-14T16:02:00.095Z,101917.72
2022-11-14T16:04:59.864Z,101892.25
2022-11-14T16:07:55.457Z,101903.56
2022-11-14T16:10:51.313Z,101890.47
2022-11-14T16:13:47.038Z,101894.03
2022-11-14T16:16:42.668Z,101884.41
2022-11-14T16:19:38.175Z,101887.69
2022-11-14T16:22:36.979Z,101891.19
2022-11-14T16:25:34.148Z,101877.78
2022-11-14T16:28:29.701Z,101876.88
2022-11-14T16:31:25.091Z,101880.38
2022-11-14T16:34:24.249Z,101876.00
2022-11-14T16:37:19.692Z,101879.88
2022-11-14T16:40:21.923Z,101864.50
2022-11-14T16:43:18.667Z,101859.47
2022-11-14T16:46:16.054Z,101866.38
2022-11-14T16:49:13.116Z,101856.59
2022-11-14T16:52:11.156Z,101854.72
2022-11-14T16:55:06.502Z,101864.31
2022-11-14T16:58:04.909Z,101857.31
2022-11-14T17:01:00.949Z,101850.16
2022-11-14T17:03:57.090Z,101858.25
2022-11-14T17:06:52.448Z,101847.81
2022-11-14T17:09:48.790Z,101847.50
2022-11-14T17:12:44.638Z,101832.53
2022-11-14T17:15:43.517Z,101829.81
2022-11-14T17:18:39.530Z,101828.97
2022-11-14T17:21:36.006Z,101834.41
2022-11-14T17:24:32.260Z,101823.81
2022-11-14T17:27:27.743Z,101824.53
2022-11-14T17:30:23.531Z,101815.09
2022-11-14T17:33:22.831Z,101816.81
2022-11-14T17:36:18.476Z,101812.53
2022-11-14T17:39:13.878Z,101817.91
2022-11-14T17:42:10.622Z,101805.59
2022-11-14T17:45:06.852Z,101803.81
2022-11-14T17:48:02.573Z,101795.78
2022-11-14T17:51:06.358Z,101794.94
2022-11-14T17:54:01.935Z,101790.50
2022-11-14T17:57:02.599Z,101789.97
2022-11-14T17:59:58.675Z,101789.09
2022-11-14T18:02:56.257Z,101787.56
2022-11-14T18:05:52.429Z,101786.53
2022-11-14T18:08:53.157Z,101786.34
2022-11-14T18:11:49.374Z,101777.56
2022-11-14T18:14:46.215Z,101780.06
2022-11-14T18:17:43.080Z,101779.19
2022-11-14T18:20:48.766Z,101783.81
2022-11-14T18:23:45.568Z,101775.94
2022-11-14T18:26:46.048Z,101780.38
2022-11-14T18:29:46.737Z,101772.50
2022-11-14T18:32:44.567Z,101771.09
2022-11-14T18:35:43.098Z,101771.03
2022-11-14T18:38:41.127Z,101767.28
2022-11-14T18:41:38.754Z,101770.09
2022-11-14T18:44:38.273Z,101767.22
2022-11-14T18:47:36.458Z,101762.91
2022-11-14T18:50:35.728Z,101759.19
2022-11-14T18:53:36.209Z,101762.91
2022-11-14T18:56:33.707Z,101748.13
2022-11-14T18:59:34.818Z,101733.38
2022-11-14T19:02:34.597Z,101738.91
2022-11-14T19:05:31.962Z,101741.44
2022-11-14T19:08:28.955Z,101731.97
2022-11-14T19:11:37.759Z,101737.56
2022-11-14T19:14:34.588Z,101740.97
2022-11-14T19:17:33.938Z,101726.81
2022-11-14T19:20:30.804Z,101720.53
2022-11-14T19:23:30.547Z,101712.56
2022-11-14T19:26:33.907Z,101722.06
2022-11-14T19:29:29.951Z,101719.34
2022-11-14T19:32:28.478Z,101721.06
2022-11-14T19:35:27.935Z,101713.34
2022-11-14T19:38:26.349Z,101718.88
2022-11-14T19:41:28.311Z,101719.56
2022-11-14T19:44:25.038Z,101715.13
2022-11-14T19:47:21.487Z,101714.22
2022-11-14T19:50:20.348Z,101712.50
2022-11-14T19:53:20.059Z,101704.50
2022-11-14T19:56:20.494Z,101702.06
2022-11-14T19:59:20.180Z,101688.81
2022-11-14T20:02:20.876Z,101702.38
2022-11-14T20:05:17.463Z,101672.66
2022-11-14T20:08:13.733Z,101686.84
2022-11-14T20:11:15.970Z,101689.41
2022-11-14T20:14:15.034Z,101689.41
2022-11-14T20:17:11.118Z,101691.31
2022-11-14T20:20:07.887Z,101701.97
2022-11-14T20:23:05.035Z,101692.28
2022-11-14T20:26:01.646Z,101685.22
2022-11-14T20:29:01.378Z,101683.69
2022-11-14T20:31:58.236Z,101682.13
2022-11-14T20:34:53.936Z,101674.09
2022-11-14T20:37:51.194Z,101673.25
2022-11-14T20:40:47.222Z,101674.25
2022-11-14T20:43:44.674Z,101674.97
2022-11-14T20:46:43.030Z,101673.09
2022-11-14T20:49:40.311Z,101668.91
2022-11-14T20:52:36.700Z,101663.75
2022-11-14T20:55:33.231Z,101661.81
2022-11-14T20:58:34.740Z,101657.38
2022-11-14T21:01:30.875Z,101657.38
2022-11-14T21:04:28.694Z,101646.66
2022-11-14T21:07:24.697Z,101652.78
2022-11-14T21:10:35.597Z,101650.22
